ESMT/HAD METAR and TAF weather

Enter ICAO airport designator
Station Type Date Time Source
ESMT METAR 2018/12/12 23:20 UTC NOAA

ESMT 122320Z AUTO 03007KT 9999 NCD M01/M03 Q1031


Station Type Date Time Source
ESMT Decoded METAR 2018/12/12 23:20 UTC NOAA

Halmstad Swedish Air Force Base , Sweden (ESMT) 56-41N 012-50E
Dec 12, 2018 - 06:20 PM EST / 2018.12.12 2320 UTC
Wind: from the NNE (030 degrees) at 8 MPH (7 KT):0
Visibility: greater than 7 mile(s):0
Temperature: 30 F (-1 C)
Windchill: 23 F (-5 C):1
Dew Point: 26 F (-3 C)
Relative Humidity: 86%
Pressure (altimeter): 30.45 in. Hg (1031 hPa)
ob: ESMT 122320Z AUTO 03007KT 9999 NCD M01/M03 Q1031
cycle: 23

Station Type Date Time Source
ESMT TAF 2017/04/24 06:33 UTC NOAA

TAF TAF ESMT 240513Z 2406/2506 22018KT 9999 BKN018
TEMPO 2406/2413 22018G30KT 4000 RADZ BKN008
TEMPO 2413/2415 24020G30KT 4000 SHRA BKN014 SCT020CB


Example: see airport list